Terminal Aerodrome Forecast
Issued by NWS Cleveland, OH

Home | Current Version | Previous Version | Text Only | Print | Product List | Glossary On
Versions: 1 2 3 4 5 6 7 8 9 10 11 12 13 14 15 16 17 18 19 20 21 22 23 24 25
203
FTUS41 KCLE 010527
TAFMFD
TAF
KMFD 010527Z 0106/0206 09006KT 6SM BR VCSH BKN007 OVC050
      TEMPO 0106/0110 4SM -SHRA BR BKN011
     FM011000 12005KT 4SM BR VCSH BKN010 OVC050
      TEMPO 0110/0114 BKN007
     FM011500 17007KT P6SM VCSH BKN015 OVC035
     FM011900 18008KT P6SM VCSH BKN035=

USA.gov is the U.S. government's official web portal to all federal, state and local government web resources and services.